Ashwood, Oregon
Current Conditions -  °F | °C
As of 7:55 AM on Saturday 25 Oct 2014 (Local Time) from KS39 Reporting Station
Moderate Fog Moderate Fog  
Wind Chill:   Ceiling: 200
Heat Index:   Visibility: 0.5mi
Dew Point:   Wind: 14mph
Humidity: 100%   Direction: 180°S
Pressure: 29.62"   Gusts: NA
Location:  44.73°N, 120.76°W
Report Text: KS39 251455Z AUTO 18012KT 1/2SM FG BKN002 OVC080 07/07 A2962 RMK AO2
Loading
Personal Weather Stations






























Interactive Weather Map
Tropical Storm Tracking
New forecast layout! Learn more

10-Day Weather Forecast

Advertisements
Track Severe Weather on mobile